createdAt,value
2018-02-16T00:00:24.809Z,1011.31
2018-02-16T00:01:24.827Z,1011.34
2018-02-16T00:02:24.839Z,1011.29
2018-02-16T00:03:24.855Z,1011.34
2018-02-16T00:04:24.879Z,1011.35
2018-02-16T00:05:24.897Z,1011.31
2018-02-16T00:06:24.908Z,1011.31
2018-02-16T00:07:24.926Z,1011.34
2018-02-16T00:08:24.950Z,1011.37
2018-02-16T00:09:24.966Z,1011.40
2018-02-16T00:10:24.979Z,1011.37
2018-02-16T00:11:24.996Z,1011.38
2018-02-16T00:12:25.020Z,1011.38
2018-02-16T00:13:25.039Z,1011.38
2018-02-16T00:14:25.049Z,1011.42
2018-02-16T00:15:25.072Z,1011.42
2018-02-16T00:16:25.083Z,1011.49
2018-02-16T00:17:25.107Z,1011.47
2018-02-16T00:18:25.117Z,1011.53
2018-02-16T00:19:25.141Z,1011.55
2018-02-16T00:20:25.153Z,1011.58
2018-02-16T00:21:25.176Z,1011.59
2018-02-16T00:22:25.188Z,1011.58
2018-02-16T00:23:25.211Z,1011.62
2018-02-16T00:24:25.223Z,1011.63
2018-02-16T00:25:25.244Z,1011.62
2018-02-16T00:26:25.256Z,1011.64
2018-02-16T00:27:25.283Z,1011.66
2018-02-16T00:28:25.293Z,1011.65
2018-02-16T00:29:25.314Z,1011.67
2018-02-16T00:30:25.326Z,1011.69
2018-02-16T00:31:25.343Z,1011.63
2018-02-16T00:32:25.367Z,1011.70
2018-02-16T00:33:25.379Z,1011.72
2018-02-16T00:34:25.400Z,1011.66
2018-02-16T00:35:25.412Z,1011.65
2018-02-16T00:36:25.435Z,1011.70
2018-02-16T00:37:25.445Z,1011.73
2018-02-16T00:38:25.469Z,1011.75
2018-02-16T00:39:25.480Z,1011.80
2018-02-16T00:40:25.504Z,1011.80
2018-02-16T00:41:25.514Z,1011.81
2018-02-16T00:42:25.537Z,1011.83
2018-02-16T00:43:25.551Z,1011.83
2018-02-16T00:44:25.572Z,1011.85
2018-02-16T00:45:25.584Z,1011.82
2018-02-16T00:46:25.606Z,1011.85
2018-02-16T00:47:25.618Z,1011.82
2018-02-16T00:48:25.640Z,1011.88
2018-02-16T00:49:25.653Z,1011.84
2018-02-16T00:50:25.675Z,1011.88
2018-02-16T00:51:25.686Z,1011.86
2018-02-16T00:52:25.702Z,1011.85
2018-02-16T00:53:25.725Z,1011.87
2018-02-16T00:54:25.742Z,1011.86
2018-02-16T00:55:25.754Z,1011.86
2018-02-16T00:56:25.777Z,1011.86
2018-02-16T00:57:25.792Z,1011.85
2018-02-16T00:58:25.811Z,1011.90
2018-02-16T00:59:25.828Z,1011.94
2018-02-16T01:00:25.845Z,1011.91
2018-02-16T01:01:25.857Z,1011.93
2018-02-16T01:02:25.879Z,1011.95
2018-02-16T01:03:25.896Z,1011.92
2018-02-16T01:04:25.908Z,1011.97
2018-02-16T01:05:25.930Z,1011.91
2018-02-16T01:06:25.942Z,1011.95
2018-02-16T01:07:25.963Z,1011.91
2018-02-16T01:08:25.976Z,1011.95
2018-02-16T01:09:25.997Z,1011.93
2018-02-16T01:10:26.010Z,1011.97
2018-02-16T01:11:26.033Z,1011.95
2018-02-16T01:12:26.045Z,1011.95
2018-02-16T01:13:26.064Z,1011.97
2018-02-16T01:14:26.084Z,1011.98
2018-02-16T01:15:26.096Z,1012.01
2018-02-16T01:16:26.114Z,1011.99
2018-02-16T01:17:26.129Z,1011.99
2018-02-16T01:18:26.147Z,1012.02
2018-02-16T01:19:26.174Z,1012.03
2018-02-16T01:20:26.182Z,1012.04
2018-02-16T01:21:26.199Z,1012.02
2018-02-16T01:22:26.220Z,1012.11
2018-02-16T01:23:26.238Z,1012.09
2018-02-16T01:24:26.250Z,1012.06
2018-02-16T01:25:26.266Z,1012.08
2018-02-16T01:26:26.290Z,1012.05
2018-02-16T01:27:26.302Z,1012.09
2018-02-16T01:28:26.319Z,1012.03
2018-02-16T01:29:26.340Z,1012.08
2018-02-16T01:30:26.355Z,1012.07
2018-02-16T01:31:26.369Z,1012.10
2018-02-16T01:32:26.393Z,1012.16
2018-02-16T01:33:26.409Z,1012.14
2018-02-16T01:34:26.425Z,1012.13
2018-02-16T01:35:26.438Z,1012.13
2018-02-16T01:36:26.460Z,1012.14
2018-02-16T01:37:26.480Z,1012.15
2018-02-16T01:38:26.494Z,1012.15
2018-02-16T01:39:26.506Z,1012.17
2018-02-16T01:40:26.531Z,1012.15
2018-02-16T01:41:26.539Z,1012.17
2018-02-16T01:42:26.563Z,1012.13
2018-02-16T01:43:26.574Z,1012.18
2018-02-16T01:44:26.591Z,1012.18
2018-02-16T01:45:26.607Z,1012.18
2018-02-16T01:46:26.631Z,1012.18
2018-02-16T01:47:26.648Z,1012.19
2018-02-16T01:48:26.659Z,1012.16
2018-02-16T01:49:26.676Z,1012.18
2018-02-16T01:50:26.698Z,1012.22
2018-02-16T01:51:26.716Z,1012.21
2018-02-16T01:52:26.732Z,1012.17
2018-02-16T01:53:26.749Z,1012.21
2018-02-16T01:54:26.764Z,1012.18
2018-02-16T01:55:26.783Z,1012.22
2018-02-16T01:56:26.794Z,1012.21
2018-02-16T01:57:26.817Z,1012.27
2018-02-16T01:58:26.828Z,1012.25
2018-02-16T01:59:26.846Z,1012.26
2018-02-16T02:00:26.862Z,1012.28
2018-02-16T02:01:26.883Z,1012.25
2018-02-16T02:02:26.894Z,1012.28
2018-02-16T02:03:26.918Z,1012.29
2018-02-16T02:04:26.932Z,1012.32
2018-02-16T02:05:26.947Z,1012.30
2018-02-16T02:06:26.962Z,1012.30
2018-02-16T02:07:26.990Z,1012.26
2018-02-16T02:08:26.999Z,1012.27
2018-02-16T02:09:27.013Z,1012.27
2018-02-16T02:10:27.036Z,1012.27
2018-02-16T02:11:27.054Z,1012.31
2018-02-16T02:12:27.065Z,1012.20
2018-02-16T02:13:27.081Z,1012.23
2018-02-16T02:14:27.104Z,1012.22
2018-02-16T02:15:27.120Z,1012.19
2018-02-16T02:16:27.138Z,1012.21
2018-02-16T02:17:27.148Z,1012.21
2018-02-16T02:18:27.171Z,1012.31
2018-02-16T02:19:27.182Z,1012.30
2018-02-16T02:20:27.204Z,1012.33
2018-02-16T02:21:27.221Z,1012.36
2018-02-16T02:22:27.238Z,1012.34
2018-02-16T02:23:27.255Z,1012.35
2018-02-16T02:24:27.266Z,1012.36
2018-02-16T02:25:27.283Z,1012.39
2018-02-16T02:26:27.305Z,1012.35
2018-02-16T02:27:27.322Z,1012.34
2018-02-16T02:28:27.334Z,1012.44
2018-02-16T02:29:27.350Z,1012.38
2018-02-16T02:30:27.372Z,1012.39
2018-02-16T02:31:27.384Z,1012.45
2018-02-16T02:32:27.401Z,1012.50
2018-02-16T02:33:27.421Z,1012.54
2018-02-16T02:34:27.439Z,1012.58
2018-02-16T02:35:27.456Z,1012.52
2018-02-16T02:36:27.467Z,1012.54
2018-02-16T02:37:27.489Z,1012.58
2018-02-16T02:38:27.501Z,1012.60
2018-02-16T02:39:27.520Z,1012.57
2018-02-16T02:40:27.538Z,1012.66
2018-02-16T02:41:27.553Z,1012.59
2018-02-16T02:42:27.571Z,1012.60
2018-02-16T02:43:27.584Z,1012.63
2018-02-16T02:44:27.606Z,1012.66
2018-02-16T02:45:27.617Z,1012.67
2018-02-16T02:46:27.640Z,1012.66
2018-02-16T02:47:27.655Z,1012.72
2018-02-16T02:48:27.667Z,1012.68
2018-02-16T02:49:27.682Z,1012.74
2018-02-16T02:50:27.700Z,1012.72
2018-02-16T02:51:27.721Z,1012.80
2018-02-16T02:52:27.739Z,1012.84
2018-02-16T02:53:27.750Z,1012.80
2018-02-16T02:54:27.772Z,1012.82
2018-02-16T02:55:27.796Z,1012.79
2018-02-16T02:56:27.801Z,1012.88
2018-02-16T02:57:27.823Z,1012.81
2018-02-16T02:58:27.833Z,1012.88
2018-02-16T02:59:27.856Z,1012.88
2018-02-16T03:00:27.868Z,1012.90
2018-02-16T03:01:27.889Z,1012.88
2018-02-16T03:02:27.902Z,1012.89
2018-02-16T03:03:27.923Z,1012.91
2018-02-16T03:04:27.936Z,1012.84
2018-02-16T03:05:27.951Z,1012.96
2018-02-16T03:06:27.973Z,1012.93
2018-02-16T03:07:27.989Z,1012.95
2018-02-16T03:08:28.001Z,1012.98
2018-02-16T03:09:28.023Z,1012.92
2018-02-16T03:10:28.035Z,1012.94
2018-02-16T03:11:28.096Z,1012.99
2018-02-16T03:12:28.074Z,1013.04
2018-02-16T03:13:28.090Z,1013.02
2018-02-16T03:14:28.101Z,1013.04
2018-02-16T03:15:28.118Z,1013.04
2018-02-16T03:16:28.139Z,1013.04
2018-02-16T03:17:28.156Z,1013.05
2018-02-16T03:18:28.169Z,1013.06
2018-02-16T03:19:28.184Z,1013.08
2018-02-16T03:20:28.207Z,1013.09
2018-02-16T03:21:28.217Z,1013.08
2018-02-16T03:22:28.240Z,1013.18
2018-02-16T03:23:28.252Z,1013.08
2018-02-16T03:24:28.274Z,1013.17
2018-02-16T03:25:28.292Z,1013.16
2018-02-16T03:26:28.301Z,1013.20
2018-02-16T03:27:28.317Z,1013.14
2018-02-16T03:28:28.340Z,1013.19
2018-02-16T03:29:28.356Z,1013.22
2018-02-16T03:30:28.368Z,1013.24
2018-02-16T03:31:28.385Z,1013.30
2018-02-16T03:32:28.407Z,1013.31
2018-02-16T03:33:28.423Z,1013.29
2018-02-16T03:34:28.433Z,1013.32
2018-02-16T03:35:28.451Z,1013.34
2018-02-16T03:36:28.472Z,1013.34
2018-02-16T03:37:28.484Z,1013.41
2018-02-16T03:38:28.506Z,1013.39
2018-02-16T03:39:28.518Z,1013.41
2018-02-16T03:40:28.540Z,1013.45
2018-02-16T03:41:28.555Z,1013.53
2018-02-16T03:42:28.568Z,1013.41
2018-02-16T03:43:28.587Z,1013.52
2018-02-16T03:44:28.607Z,1013.49
2018-02-16T03:45:28.618Z,1013.50
2018-02-16T03:46:28.640Z,1013.54
2018-02-16T03:47:28.649Z,1013.55
2018-02-16T03:48:28.673Z,1013.53
2018-02-16T03:49:28.684Z,1013.54
2018-02-16T03:50:28.705Z,1013.52
2018-02-16T03:51:28.716Z,1013.59
2018-02-16T03:52:28.742Z,1013.55
2018-02-16T03:53:28.755Z,1013.55
2018-02-16T03:54:28.766Z,1013.54
2018-02-16T03:55:28.784Z,1013.53
2018-02-16T03:56:28.806Z,1013.63
2018-02-16T03:57:28.817Z,1013.65
2018-02-16T03:58:28.840Z,1013.66
2018-02-16T03:59:28.855Z,1013.65
2018-02-16T04:00:28.867Z,1013.61
2018-02-16T04:01:28.891Z,1013.58
2018-02-16T04:02:28.899Z,1013.59
2018-02-16T04:03:28.920Z,1013.59
2018-02-16T04:04:28.933Z,1013.60
2018-02-16T04:05:28.954Z,1013.69
2018-02-16T04:06:28.966Z,1013.69
2018-02-16T04:07:28.982Z,1013.71
2018-02-16T04:08:29.004Z,1013.70
2018-02-16T04:09:29.016Z,1013.71
2018-02-16T04:10:29.037Z,1013.66
2018-02-16T04:11:29.051Z,1013.70
2018-02-16T04:12:29.070Z,1013.74
2018-02-16T04:13:29.080Z,1013.75
2018-02-16T04:14:29.104Z,1013.72
2018-02-16T04:15:29.114Z,1013.75
2018-02-16T04:16:29.137Z,1013.73
2018-02-16T04:17:29.153Z,1013.77
2018-02-16T04:18:29.166Z,1013.77
2018-02-16T04:19:29.180Z,1013.81
2018-02-16T04:20:29.204Z,1013.78
2018-02-16T04:21:29.218Z,1013.84
2018-02-16T04:22:29.230Z,1013.81
2018-02-16T04:23:29.253Z,1013.80
2018-02-16T04:24:29.263Z,1013.78
2018-02-16T04:25:29.286Z,1013.74
2018-02-16T04:26:29.297Z,1013.75
2018-02-16T04:27:29.319Z,1013.74
2018-02-16T04:28:29.330Z,1013.77
2018-02-16T04:29:29.352Z,1013.76
2018-02-16T04:30:29.362Z,1013.73
2018-02-16T04:31:29.381Z,1013.74
2018-02-16T04:32:29.401Z,1013.79
2018-02-16T04:33:29.418Z,1013.82
2018-02-16T04:34:29.428Z,1013.83
2018-02-16T04:35:29.446Z,1013.83
2018-02-16T04:36:29.467Z,1013.91
2018-02-16T04:37:29.484Z,1013.88
2018-02-16T04:38:29.495Z,1013.85
2018-02-16T04:39:29.518Z,1013.88
2018-02-16T04:40:29.528Z,1013.84
2018-02-16T04:41:29.544Z,1013.86
2018-02-16T04:42:29.566Z,1013.87
2018-02-16T04:43:29.622Z,1013.88
2018-02-16T04:44:29.595Z,1013.91
2018-02-16T04:45:29.611Z,1013.93
2018-02-16T04:46:29.635Z,1013.93
2018-02-16T04:47:29.645Z,1013.92
2018-02-16T04:48:29.666Z,1013.90
2018-02-16T04:49:29.678Z,1013.94
2018-02-16T04:50:29.699Z,1013.94
2018-02-16T04:51:29.712Z,1013.93
2018-02-16T04:52:29.733Z,1013.92
2018-02-16T04:53:29.743Z,1013.97
2018-02-16T04:54:29.765Z,1013.96
2018-02-16T04:55:29.777Z,1013.99
2018-02-16T04:56:29.798Z,1013.97
2018-02-16T04:57:29.814Z,1013.96
2018-02-16T04:58:29.826Z,1014.01
2018-02-16T04:59:29.844Z,1014.06
2018-02-16T05:00:29.866Z,1014.04
2018-02-16T05:01:29.882Z,1014.00
2018-02-16T05:02:29.892Z,1014.05
2018-02-16T05:03:29.909Z,1014.01
2018-02-16T05:04:29.931Z,1014.02
2018-02-16T05:05:29.943Z,1014.00
2018-02-16T05:06:29.965Z,1014.07
2018-02-16T05:07:29.975Z,1014.10
2018-02-16T05:08:29.992Z,1014.07
2018-02-16T05:09:30.015Z,1014.07
2018-02-16T05:10:30.030Z,1014.12
2018-02-16T05:11:30.047Z,1014.11
2018-02-16T05:12:30.089Z,1014.14
2018-02-16T05:13:30.074Z,1014.17
2018-02-16T05:14:30.096Z,1014.11
2018-02-16T05:15:30.114Z,1014.20
2018-02-16T05:16:30.125Z,1014.23
2018-02-16T05:17:30.140Z,1014.21
2018-02-16T05:18:30.163Z,1014.25
2018-02-16T05:19:30.180Z,1014.29
2018-02-16T05:20:30.190Z,1014.35
2018-02-16T05:21:30.212Z,1014.28
2018-02-16T05:22:30.224Z,1014.31
2018-02-16T05:23:30.245Z,1014.31
2018-02-16T05:24:30.262Z,1014.41
2018-02-16T05:25:30.272Z,1014.38
2018-02-16T05:26:30.289Z,1014.40
2018-02-16T05:27:30.307Z,1014.41
2018-02-16T05:28:30.329Z,1014.41
2018-02-16T05:29:30.338Z,1014.43
2018-02-16T05:30:30.361Z,1014.36
2018-02-16T05:31:30.372Z,1014.41
2018-02-16T05:32:30.394Z,1014.45
2018-02-16T05:33:30.404Z,1014.49
2018-02-16T05:34:30.426Z,1014.43
2018-02-16T05:35:30.439Z,1014.46
2018-02-16T05:36:30.461Z,1014.48
2018-02-16T05:37:30.476Z,1014.45
2018-02-16T05:38:30.488Z,1014.50
2018-02-16T05:39:30.504Z,1014.45
2018-02-16T05:40:30.521Z,1014.47
2018-02-16T05:41:30.535Z,1014.51
2018-02-16T05:42:30.558Z,1014.48
2018-02-16T05:43:30.575Z,1014.51
2018-02-16T05:44:30.586Z,1014.53
2018-02-16T05:45:30.608Z,1014.52
2018-02-16T05:46:30.618Z,1014.54
2018-02-16T05:47:30.641Z,1014.53
2018-02-16T05:48:30.652Z,1014.58
2018-02-16T05:49:30.673Z,1014.60
2018-02-16T05:50:30.683Z,1014.53
2018-02-16T05:51:30.708Z,1014.55
2018-02-16T05:52:30.718Z,1014.62
2018-02-16T05:53:30.740Z,1014.63
2018-02-16T05:54:30.758Z,1014.68
2018-02-16T05:55:30.773Z,1014.65
2018-02-16T05:56:30.789Z,1014.71
2018-02-16T05:57:30.805Z,1014.68
2018-02-16T05:58:30.815Z,1014.70
2018-02-16T05:59:30.837Z,1014.69
2018-02-16T06:00:30.849Z,1014.70
2018-02-16T06:01:30.864Z,1014.73
2018-02-16T06:02:30.888Z,1014.77
2018-02-16T06:03:30.903Z,1014.79
2018-02-16T06:04:30.916Z,1014.80
2018-02-16T06:05:30.930Z,1014.82
2018-02-16T06:06:30.953Z,1014.78
2018-02-16T06:07:30.969Z,1014.86
2018-02-16T06:08:30.985Z,1014.87
2018-02-16T06:09:31.000Z,1014.95
2018-02-16T06:10:31.011Z,1014.92
2018-02-16T06:11:31.029Z,1014.93
2018-02-16T06:12:31.049Z,1014.99
2018-02-16T06:13:31.061Z,1014.99
2018-02-16T06:14:31.076Z,1015.03
2018-02-16T06:15:31.099Z,1015.04
2018-02-16T06:16:31.112Z,1015.03
2018-02-16T06:17:31.125Z,1015.04
2018-02-16T06:18:31.148Z,1015.05
2018-02-16T06:19:31.165Z,1015.07
2018-02-16T06:20:31.174Z,1015.09
2018-02-16T06:21:31.192Z,1015.05
2018-02-16T06:22:31.213Z,1015.04
2018-02-16T06:23:31.224Z,1015.08
2018-02-16T06:24:31.246Z,1015.10
2018-02-16T06:25:31.262Z,1015.17
2018-02-16T06:26:31.272Z,1015.21
2018-02-16T06:27:31.289Z,1015.19
2018-02-16T06:28:31.306Z,1015.23
2018-02-16T06:29:31.321Z,1015.25
2018-02-16T06:30:31.338Z,1015.21
2018-02-16T06:31:31.354Z,1015.25
2018-02-16T06:32:31.377Z,1015.27
2018-02-16T06:33:31.387Z,1015.23
2018-02-16T06:34:31.409Z,1015.25
2018-02-16T06:35:31.420Z,1015.28
2018-02-16T06:36:31.443Z,1015.24
2018-02-16T06:37:31.453Z,1015.22
2018-02-16T06:38:31.475Z,1015.26
2018-02-16T06:39:31.491Z,1015.29
2018-02-16T06:40:31.502Z,1015.28
2018-02-16T06:41:31.524Z,1015.35
2018-02-16T06:42:31.541Z,1015.37
2018-02-16T06:43:31.556Z,1015.33
2018-02-16T06:44:31.574Z,1015.36
2018-02-16T06:45:31.616Z,1015.34
2018-02-16T06:46:31.600Z,1015.42
2018-02-16T06:47:31.623Z,1015.41
2018-02-16T06:48:31.633Z,1015.41
2018-02-16T06:49:31.648Z,1015.44
2018-02-16T06:50:31.671Z,1015.46
2018-02-16T06:51:31.687Z,1015.50
2018-02-16T06:52:31.699Z,1015.43
2018-02-16T06:53:31.722Z,1015.49
2018-02-16T06:54:31.731Z,1015.49
2018-02-16T06:55:31.752Z,1015.49
2018-02-16T06:56:31.764Z,1015.47
2018-02-16T06:57:31.779Z,1015.52
2018-02-16T06:58:31.797Z,1015.55
2018-02-16T06:59:31.820Z,1015.57
2018-02-16T07:00:31.836Z,1015.59
2018-02-16T07:01:31.845Z,1015.60
2018-02-16T07:02:31.868Z,1015.59
2018-02-16T07:03:31.884Z,1015.68
2018-02-16T07:04:31.896Z,1015.66
2018-02-16T07:05:31.916Z,1015.70
2018-02-16T07:06:31.930Z,1015.66
2018-02-16T07:07:31.949Z,1015.78
2018-02-16T07:08:31.966Z,1015.75
2018-02-16T07:09:31.977Z,1015.73
2018-02-16T07:10:32.000Z,1015.73
2018-02-16T07:11:32.016Z,1015.69
2018-02-16T07:12:32.027Z,1015.69
2018-02-16T07:13:32.043Z,1015.68
2018-02-16T07:14:32.064Z,1015.68
2018-02-16T07:15:32.080Z,1015.71
2018-02-16T07:16:32.091Z,1015.78
2018-02-16T07:17:32.110Z,1015.82
2018-02-16T07:18:32.131Z,1015.85
2018-02-16T07:19:32.141Z,1015.87
2018-02-16T07:20:32.163Z,1015.85
2018-02-16T07:21:32.180Z,1015.89
2018-02-16T07:22:32.190Z,1015.92
2018-02-16T07:23:32.212Z,1015.89
2018-02-16T07:24:32.230Z,1015.90
2018-02-16T07:25:32.246Z,1015.91
2018-02-16T07:26:32.257Z,1015.94
2018-02-16T07:27:32.275Z,1015.91
2018-02-16T07:28:32.297Z,1015.98
2018-02-16T07:29:32.312Z,1016.00
2018-02-16T07:30:32.323Z,1016.00
2018-02-16T07:31:32.340Z,1016.02
2018-02-16T07:32:32.363Z,1016.07
2018-02-16T07:33:32.380Z,1016.06
2018-02-16T07:34:32.390Z,1016.08
2018-02-16T07:35:32.407Z,1016.13
2018-02-16T07:36:32.432Z,1016.14
2018-02-16T07:37:32.439Z,1016.16
2018-02-16T07:38:32.461Z,1016.19
2018-02-16T07:39:32.473Z,1016.16
2018-02-16T07:40:32.497Z,1016.18
2018-02-16T07:41:32.509Z,1016.21
2018-02-16T07:42:32.530Z,1016.20
2018-02-16T07:43:32.540Z,1016.24
2018-02-16T07:44:32.563Z,1016.26
2018-02-16T07:45:32.574Z,1016.28
2018-02-16T07:46:32.596Z,1016.22
2018-02-16T07:47:32.608Z,1016.27
2018-02-16T07:48:32.630Z,1016.29
2018-02-16T07:49:32.640Z,1016.27
2018-02-16T07:50:32.663Z,1016.28
2018-02-16T07:51:32.683Z,1016.32
2018-02-16T07:52:32.692Z,1016.32
2018-02-16T07:53:32.713Z,1016.33
2018-02-16T07:54:32.724Z,1016.27
2018-02-16T07:55:32.788Z,1016.33
2018-02-16T07:56:32.759Z,1016.38
2018-02-16T07:57:32.780Z,1016.37
2018-02-16T07:58:32.792Z,1016.36
2018-02-16T07:59:32.815Z,1016.43
2018-02-16T08:00:32.826Z,1016.40
2018-02-16T08:01:32.848Z,1016.43
2018-02-16T08:02:32.860Z,1016.45
2018-02-16T08:03:32.883Z,1016.47
2018-02-16T08:04:32.895Z,1016.40
2018-02-16T08:05:32.918Z,1016.35
2018-02-16T08:06:32.928Z,1016.35
2018-02-16T08:07:32.944Z,1016.41
2018-02-16T08:08:32.969Z,1016.43
2018-02-16T08:09:32.984Z,1016.43
2018-02-16T08:10:32.995Z,1016.47
2018-02-16T08:11:33.013Z,1016.48
2018-02-16T08:12:33.037Z,1016.43
2018-02-16T08:13:33.051Z,1016.46
2018-02-16T08:14:33.064Z,1016.56
2018-02-16T08:15:33.081Z,1016.48
2018-02-16T08:16:33.106Z,1016.53
2018-02-16T08:17:33.120Z,1016.60
2018-02-16T08:18:33.133Z,1016.62
2018-02-16T08:19:33.149Z,1016.63
2018-02-16T08:20:33.172Z,1016.62
2018-02-16T08:21:33.190Z,1016.59
2018-02-16T08:22:33.201Z,1016.60
2018-02-16T08:23:33.220Z,1016.62
2018-02-16T08:24:33.242Z,1016.59
2018-02-16T08:25:33.254Z,1016.65
2018-02-16T08:26:33.276Z,1016.75
2018-02-16T08:27:33.288Z,1016.73
2018-02-16T08:28:33.311Z,1016.76
2018-02-16T08:29:33.329Z,1016.74
2018-02-16T08:30:33.340Z,1016.74
2018-02-16T08:31:33.361Z,1016.77
2018-02-16T08:32:33.380Z,1016.79
2018-02-16T08:33:33.392Z,1016.75
2018-02-16T08:34:33.415Z,1016.76
2018-02-16T08:35:33.427Z,1016.74
2018-02-16T08:36:33.450Z,1016.75
2018-02-16T08:37:33.462Z,1016.79
2018-02-16T08:38:33.485Z,1016.78
2018-02-16T08:39:33.497Z,1016.82
2018-02-16T08:40:33.521Z,1016.82
2018-02-16T08:41:33.537Z,1016.86
2018-02-16T08:42:33.550Z,1016.79
2018-02-16T08:43:33.569Z,1016.86
2018-02-16T08:44:33.594Z,1016.89
2018-02-16T08:45:33.603Z,1016.91
2018-02-16T08:46:33.626Z,1016.90
2018-02-16T08:47:33.645Z,1016.89
2018-02-16T08:48:33.656Z,1016.95
2018-02-16T08:49:33.681Z,1016.96
2018-02-16T08:50:33.691Z,1016.94
2018-02-16T08:51:33.716Z,1016.89
2018-02-16T08:52:33.729Z,1016.93
2018-02-16T08:53:33.754Z,1016.96
2018-02-16T08:54:33.764Z,1016.91
2018-02-16T08:55:33.787Z,1016.99
2018-02-16T08:56:33.800Z,1017.04
2018-02-16T08:57:33.816Z,1016.99
2018-02-16T08:58:33.844Z,1017.07
2018-02-16T08:59:33.859Z,1017.06
2018-02-16T09:00:33.871Z,1017.10
2018-02-16T09:01:33.897Z,1017.08
2018-02-16T09:02:33.907Z,1017.02
2018-02-16T09:03:33.926Z,1017.07
2018-02-16T09:04:33.950Z,1017.07
2018-02-16T09:05:33.966Z,1017.35
2018-02-16T09:06:33.981Z,1017.43
2018-02-16T09:07:33.998Z,1017.36
2018-02-16T09:08:34.022Z,1017.47
2018-02-16T09:09:34.041Z,1017.37
2018-02-16T09:10:34.054Z,1017.17
2018-02-16T09:11:34.074Z,1017.44
2018-02-16T09:12:34.099Z,1017.29
2018-02-16T09:13:34.112Z,1017.17
2018-02-16T09:14:34.137Z,1017.46
2018-02-16T09:15:34.153Z,1017.44
2018-02-16T09:16:34.180Z,1017.29
2018-02-16T09:17:34.201Z,1017.41
2018-02-16T09:18:34.219Z,1017.20
2018-02-16T09:19:34.242Z,1017.40
2018-02-16T09:20:34.266Z,1017.50
2018-02-16T09:21:34.280Z,1016.92
2018-02-16T09:22:34.308Z,1016.92
2018-02-16T09:23:34.326Z,1017.61
2018-02-16T09:24:34.354Z,1017.48
2018-02-16T09:25:34.376Z,1017.31
2018-02-16T09:26:34.399Z,1016.96
2018-02-16T09:27:34.421Z,1017.33
2018-02-16T09:28:34.438Z,1017.61
2018-02-16T09:29:34.461Z,1017.03
2018-02-16T09:30:34.490Z,1017.26
2018-02-16T09:31:34.513Z,1017.23
2018-02-16T09:32:34.531Z,1017.22
2018-02-16T09:33:34.559Z,1017.58
2018-02-16T09:34:34.578Z,1017.49
2018-02-16T09:35:34.606Z,1017.20
2018-02-16T09:36:34.624Z,1017.68
2018-02-16T09:37:34.653Z,1017.21
2018-02-16T09:38:34.670Z,1017.43
2018-02-16T09:39:34.699Z,1017.28
2018-02-16T09:40:34.725Z,1017.82
2018-02-16T09:41:34.741Z,1017.41
2018-02-16T09:42:34.763Z,1017.66
2018-02-16T09:43:34.792Z,1017.34
2018-02-16T09:44:34.812Z,1017.29
2018-02-16T09:45:34.839Z,1017.74
2018-02-16T09:46:34.858Z,1017.82
2018-02-16T09:47:34.885Z,1017.43
2018-02-16T09:48:34.904Z,1017.69
2018-02-16T09:49:34.925Z,1017.81
2018-02-16T09:50:34.955Z,1017.46
2018-02-16T09:51:34.977Z,1017.58
2018-02-16T09:52:34.997Z,1017.62
2018-02-16T09:53:35.017Z,1017.85
2018-02-16T09:54:35.042Z,1017.93
2018-02-16T09:55:35.073Z,1018.06
2018-02-16T09:56:35.093Z,1017.50
2018-02-16T09:57:35.110Z,1018.10
2018-02-16T09:58:35.139Z,1017.91
2018-02-16T09:59:35.163Z,1017.97
2018-02-16T10:00:35.181Z,1017.55
2018-02-16T10:01:35.204Z,1018.07
2018-02-16T10:02:35.233Z,1018.08
2018-02-16T10:03:35.256Z,1017.86
2018-02-16T10:04:35.276Z,1017.75
2018-02-16T10:05:35.300Z,1017.64
2018-02-16T10:06:35.332Z,1017.81
2018-02-16T10:07:35.349Z,1017.66
2018-02-16T10:08:35.378Z,1018.07
2018-02-16T10:09:35.396Z,1017.72
2018-02-16T10:10:35.422Z,1017.81
2018-02-16T10:11:35.445Z,1017.76
2018-02-16T10:12:35.471Z,1017.73
2018-02-16T10:13:35.494Z,1017.77
2018-02-16T10:14:35.527Z,1017.73
2018-02-16T10:15:35.545Z,1017.79
2018-02-16T10:16:35.574Z,1018.16
2018-02-16T10:17:35.591Z,1017.87
2018-02-16T10:18:35.621Z,1017.77
2018-02-16T10:19:35.640Z,1018.12
2018-02-16T10:20:35.669Z,1017.79
2018-02-16T10:21:35.687Z,1017.76
2018-02-16T10:22:35.719Z,1018.26
2018-02-16T10:23:35.736Z,1017.83
2018-02-16T10:24:35.767Z,1017.82
2018-02-16T10:25:35.790Z,1018.11
2018-02-16T10:26:35.809Z,1017.91
2018-02-16T10:27:35.829Z,1018.23
2018-02-16T10:28:35.853Z,1017.93
2018-02-16T10:29:35.877Z,1017.81
2018-02-16T10:30:35.901Z,1018.26
2018-02-16T10:31:35.932Z,1018.40
2018-02-16T10:32:35.946Z,1018.51
2018-02-16T10:33:35.976Z,1018.54
2018-02-16T10:34:35.993Z,1018.12
2018-02-16T10:35:36.024Z,1018.46
2018-02-16T10:36:36.040Z,1018.02
2018-02-16T10:37:36.070Z,1018.40
2018-02-16T10:38:36.087Z,1018.50
2018-02-16T10:39:36.120Z,1018.13
2018-02-16T10:40:36.136Z,1018.47
2018-02-16T10:41:36.158Z,1018.08
2018-02-16T10:42:36.190Z,1018.47
2018-02-16T10:43:36.215Z,1018.54
2018-02-16T10:44:36.239Z,1018.48
2018-02-16T10:45:36.263Z,1018.54
2018-02-16T10:46:36.291Z,1018.00
2018-02-16T10:47:36.313Z,1017.97
2018-02-16T10:48:36.332Z,1018.46
2018-02-16T10:49:36.356Z,1018.43
2018-02-16T10:50:36.388Z,1017.94
2018-02-16T10:51:36.463Z,1017.91
2018-02-16T10:52:36.432Z,1018.00
2018-02-16T10:53:36.455Z,1018.30
2018-02-16T10:54:36.485Z,1017.97
2018-02-16T10:55:36.517Z,1018.36
2018-02-16T10:56:36.537Z,1018.54
2018-02-16T10:57:36.561Z,1018.51
2018-02-16T10:58:36.587Z,1018.49
2018-02-16T10:59:36.606Z,1018.53
2018-02-16T11:00:36.629Z,1018.53
2018-02-16T11:01:36.660Z,1018.59
2018-02-16T11:02:36.683Z,1018.11
2018-02-16T11:03:36.710Z,1018.45
2018-02-16T11:04:36.731Z,1018.05
2018-02-16T11:05:36.758Z,1018.04
2018-02-16T11:06:36.783Z,1018.54
2018-02-16T11:07:36.808Z,1018.34
2018-02-16T11:08:36.829Z,1018.61
2018-02-16T11:09:36.853Z,1018.00
2018-02-16T11:10:36.881Z,1018.02
2018-02-16T11:11:36.908Z,1017.98
2018-02-16T11:12:36.926Z,1017.96
2018-02-16T11:13:36.950Z,1017.98
2018-02-16T11:14:36.974Z,1018.00
2018-02-16T11:15:37.003Z,1018.00
2018-02-16T11:16:37.028Z,1018.53
2018-02-16T11:17:37.045Z,1018.55
2018-02-16T11:18:37.077Z,1017.98
2018-02-16T11:19:37.093Z,1018.58
2018-02-16T11:20:37.124Z,1018.55
2018-02-16T11:21:37.141Z,1018.56
2018-02-16T11:22:37.169Z,1018.74
2018-02-16T11:23:37.188Z,1018.67
2018-02-16T11:24:37.221Z,1018.55
2018-02-16T11:25:37.234Z,1018.44
2018-02-16T11:26:37.267Z,1018.07
2018-02-16T11:27:37.289Z,1018.01
2018-02-16T11:28:37.307Z,1018.03
2018-02-16T11:29:37.337Z,1018.56
2018-02-16T11:30:37.356Z,1018.23
2018-02-16T11:31:37.384Z,1018.35
2018-02-16T11:32:37.408Z,1018.12
2018-02-16T11:33:37.434Z,1018.14
2018-02-16T11:34:37.451Z,1018.17
2018-02-16T11:35:37.482Z,1018.11
2018-02-16T11:36:37.501Z,1018.62
2018-02-16T11:37:37.523Z,1017.96
2018-02-16T11:38:37.552Z,1018.00
2018-02-16T11:39:37.578Z,1017.95
2018-02-16T11:40:37.594Z,1018.68
2018-02-16T11:41:37.624Z,1018.69
2018-02-16T11:42:37.640Z,1018.67
2018-02-16T11:43:37.664Z,1018.73
2018-02-16T11:44:37.693Z,1018.79
2018-02-16T11:45:37.716Z,1018.81
2018-02-16T11:46:37.734Z,1018.81
2018-02-16T11:47:37.758Z,1018.81
2018-02-16T11:48:37.787Z,1018.84
2018-02-16T11:49:37.811Z,1018.19
2018-02-16T11:50:37.832Z,1018.04
2018-02-16T11:51:37.858Z,1018.13
2018-02-16T11:52:37.885Z,1018.11
2018-02-16T11:53:37.903Z,1018.70
2018-02-16T11:54:37.934Z,1018.73
2018-02-16T11:55:37.953Z,1018.04
2018-02-16T11:56:37.983Z,1018.73
2018-02-16T11:57:38.007Z,1018.81
2018-02-16T11:58:38.028Z,1018.82
2018-02-16T11:59:38.052Z,1018.79
2018-02-16T12:00:38.082Z,1018.85
2018-02-16T12:01:38.130Z,1018.88
2018-02-16T12:02:38.127Z,1018.84
2018-02-16T12:03:38.157Z,1018.87
2018-02-16T12:04:38.185Z,1018.94
2018-02-16T12:05:38.211Z,1018.94